createdAt,value
2023-04-05T00:03:00.860Z,97440.34
2023-04-05T00:07:54.666Z,97434.25
2023-04-05T00:12:51.916Z,97433.03
2023-04-05T00:17:50.749Z,97429.19
2023-04-05T00:22:44.669Z,97427.56
2023-04-05T00:27:40.465Z,97419.91
2023-04-05T00:32:34.008Z,97421.50
2023-04-05T00:37:31.982Z,97411.22
2023-04-05T00:42:25.546Z,97410.19
2023-04-05T00:47:23.682Z,97393.06
2023-04-05T00:52:23.532Z,97397.50
2023-04-05T00:57:21.907Z,97379.53
2023-04-05T01:02:26.754Z,97386.00
2023-04-05T01:07:38.793Z,97381.31
2023-04-05T01:12:38.865Z,97365.88
2023-04-05T01:17:39.804Z,97368.84
2023-04-05T01:23:22.969Z,97377.66
2023-04-05T01:29:08.395Z,97364.69
2023-04-05T01:34:18.471Z,97368.53
2023-04-05T01:39:16.459Z,97381.44
2023-04-05T01:44:09.901Z,97384.97
2023-04-05T01:49:06.276Z,97367.91
2023-04-05T01:53:59.731Z,97363.84
2023-04-05T01:58:53.042Z,97356.78
2023-04-05T02:03:46.776Z,97356.09
2023-04-05T02:08:41.708Z,97356.00
2023-04-05T02:13:35.273Z,97356.00
2023-04-05T02:18:31.600Z,97345.44
2023-04-05T02:23:24.971Z,97341.22
2023-04-05T02:28:21.590Z,97341.00
2023-04-05T02:33:15.137Z,97336.38
2023-04-05T02:38:09.423Z,97333.69
2023-04-05T02:43:03.679Z,97331.66
2023-04-05T02:47:58.722Z,97330.19
2023-04-05T02:52:52.560Z,97320.47
2023-04-05T02:57:47.111Z,97323.50
2023-04-05T03:02:41.012Z,97323.34
2023-04-05T03:07:35.908Z,97313.44
2023-04-05T03:12:29.268Z,97305.69
2023-04-05T03:17:22.777Z,97299.88
2023-04-05T03:22:16.161Z,97302.44
2023-04-05T03:27:11.638Z,97301.06
2023-04-05T03:32:05.279Z,97297.06
2023-04-05T03:37:00.783Z,97299.09
2023-04-05T03:41:54.255Z,97299.63
2023-04-05T03:46:51.955Z,97294.41
2023-04-05T03:51:45.357Z,97292.38
2023-04-05T03:56:43.548Z,97283.28
2023-04-05T04:01:38.987Z,97293.50
2023-04-05T04:06:34.228Z,97289.84
2023-04-05T04:11:27.644Z,97290.91
2023-04-05T04:16:21.102Z,97288.63
2023-04-05T04:21:17.035Z,97290.41
2023-04-05T04:26:11.909Z,97293.84
2023-04-05T04:31:07.712Z,97284.31
2023-04-05T04:36:07.048Z,97288.41
2023-04-05T04:41:02.768Z,97295.03
2023-04-05T04:45:57.490Z,97287.53
2023-04-05T04:50:50.939Z,97285.59
2023-04-05T04:55:44.635Z,97292.97
2023-04-05T05:00:40.187Z,97294.25
2023-04-05T05:05:35.118Z,97289.75
2023-04-05T05:10:28.582Z,97292.47
2023-04-05T05:15:24.932Z,97300.41
2023-04-05T05:20:18.906Z,97303.09
2023-04-05T05:25:14.011Z,97301.16
2023-04-05T05:35:13.992Z,97304.47
2023-04-05T05:40:10.037Z,97309.78
2023-04-05T05:45:08.233Z,97312.81
2023-04-05T05:50:01.887Z,97318.78
2023-04-05T05:54:55.370Z,97317.13
2023-04-05T05:59:49.169Z,97313.00
2023-04-05T06:09:52.824Z,97313.50
2023-04-05T06:14:46.395Z,97312.16
2023-04-05T06:35:03.760Z,97315.25
2023-04-05T06:39:57.340Z,97318.28
2023-04-05T06:44:50.822Z,97310.06
2023-04-05T06:49:45.715Z,97315.97
2023-04-05T06:59:47.308Z,97292.50
2023-04-05T07:04:42.710Z,97283.25
2023-04-05T07:09:41.149Z,97283.81
2023-04-05T07:19:36.748Z,97288.63
2023-04-05T07:24:33.170Z,97288.66
2023-04-05T07:29:26.726Z,97293.47
2023-04-05T07:34:25.731Z,97293.66
2023-04-05T07:39:25.696Z,97287.28
2023-04-05T08:07:40.695Z,97288.47
2023-04-05T08:12:51.127Z,97283.19
2023-04-05T08:17:44.574Z,97292.22
2023-04-05T08:22:42.070Z,97285.72
2023-04-05T08:32:46.244Z,97280.19
2023-04-05T08:37:52.613Z,97280.47
2023-04-05T08:49:19.950Z,97284.78
2023-04-05T09:00:01.496Z,97289.13
2023-04-05T09:04:55.838Z,97276.00
2023-04-05T09:09:54.930Z,97279.72
2023-04-05T09:14:51.797Z,97276.41
2023-04-05T09:19:47.825Z,97272.13
2023-04-05T09:24:40.476Z,97276.88
2023-04-05T09:29:36.499Z,97275.72
2023-04-05T09:34:33.320Z,97271.19
2023-04-05T09:39:31.745Z,97270.56
2023-04-05T09:44:25.721Z,97275.66
2023-04-05T09:49:35.155Z,97281.31
2023-04-05T09:54:28.592Z,97276.47
2023-04-05T09:59:23.608Z,97284.38
2023-04-05T10:09:25.520Z,97274.06
2023-04-05T10:14:21.232Z,97254.94
2023-04-05T10:19:29.770Z,97268.50
2023-04-05T10:24:38.892Z,97268.56
2023-04-05T10:30:00.111Z,97270.69
2023-04-05T10:35:11.973Z,97257.91
2023-04-05T10:40:11.278Z,97258.28
2023-04-05T10:50:25.863Z,97264.13
2023-04-05T10:55:21.680Z,97265.56
2023-04-05T11:00:17.599Z,97263.22
2023-04-05T11:05:35.008Z,97247.81
2023-04-05T11:10:39.992Z,97265.72
2023-04-05T11:15:35.172Z,97231.50
2023-04-05T11:20:31.264Z,97231.75
2023-04-05T11:25:26.305Z,97235.94
2023-04-05T11:30:52.013Z,97226.63
2023-04-05T11:36:03.244Z,97221.97
2023-04-05T11:41:08.613Z,97217.63
2023-04-05T11:46:05.825Z,97200.28
2023-04-05T11:50:59.669Z,97203.16
2023-04-05T11:55:55.411Z,97207.16
2023-04-05T12:01:01.276Z,97193.66
2023-04-05T12:05:58.797Z,97185.09
2023-04-05T12:11:01.462Z,97196.97
2023-04-05T12:15:54.992Z,97176.53
2023-04-05T12:20:48.559Z,97179.50
2023-04-05T12:25:47.765Z,97195.03
2023-04-05T12:30:51.255Z,97176.22
2023-04-05T12:35:44.746Z,97173.88
2023-04-05T12:40:41.853Z,97170.16
2023-04-05T12:45:41.780Z,97162.47
2023-04-05T12:50:35.922Z,97157.59
2023-04-05T12:55:31.210Z,97152.16
2023-04-05T13:00:28.120Z,97140.53
2023-04-05T13:05:27.742Z,97146.53
2023-04-05T13:10:27.894Z,97141.69
2023-04-05T13:15:23.691Z,97129.78
2023-04-05T13:20:51.639Z,97129.00
2023-04-05T13:25:46.473Z,97127.22
2023-04-05T13:30:40.092Z,97132.56
2023-04-05T13:35:34.045Z,97119.09
2023-04-05T13:40:28.911Z,97104.41
2023-04-05T13:45:22.310Z,97118.00
2023-04-05T13:50:15.731Z,97111.91
2023-04-05T13:55:09.675Z,97104.66
2023-04-05T14:00:05.178Z,97102.41
2023-04-05T14:04:58.719Z,97091.31
2023-04-05T14:09:52.297Z,97086.63
2023-04-05T14:14:46.439Z,97088.00
2023-04-05T14:19:43.137Z,97090.31
2023-04-05T14:24:36.794Z,97090.13
2023-04-05T14:29:30.505Z,97076.69
2023-04-05T14:34:24.156Z,97083.09
2023-04-05T14:39:21.852Z,97084.25
2023-04-05T14:44:15.382Z,97074.91
2023-04-05T14:49:08.865Z,97093.72
2023-04-05T14:54:02.380Z,97090.50
2023-04-05T14:58:57.326Z,97079.47
2023-04-05T15:03:53.566Z,97072.34
2023-04-05T15:08:47.406Z,97077.25
2023-04-05T15:13:40.913Z,97063.44
2023-04-05T15:18:36.387Z,97057.03
2023-04-05T15:23:36.823Z,97063.31
2023-04-05T15:28:30.699Z,97058.84
2023-04-05T15:33:24.477Z,97080.72
2023-04-05T15:38:22.516Z,97068.03
2023-04-05T15:43:16.298Z,97054.13
2023-04-05T15:48:09.802Z,97067.94
2023-04-05T15:53:05.730Z,97052.88
2023-04-05T15:58:00.887Z,97054.66
2023-04-05T16:03:01.041Z,97055.78
2023-04-05T16:07:57.889Z,97054.56
2023-04-05T16:12:56.153Z,97041.69
2023-04-05T16:17:51.353Z,97035.91
2023-04-05T16:22:49.624Z,97044.28
2023-04-05T16:27:43.306Z,97055.59
2023-04-05T16:32:36.924Z,97060.88
2023-04-05T16:37:33.725Z,97063.91
2023-04-05T16:42:31.146Z,97082.44
2023-04-05T16:47:48.482Z,97076.88
2023-04-05T16:52:46.261Z,97074.84
2023-04-05T16:57:39.997Z,97061.59
2023-04-05T17:02:33.919Z,97072.22
2023-04-05T17:07:27.682Z,97080.59
2023-04-05T17:12:22.708Z,97080.78
2023-04-05T17:17:16.312Z,97072.84
2023-04-05T17:22:22.674Z,97059.44
2023-04-05T17:27:31.390Z,97063.78
2023-04-05T17:32:46.916Z,97077.94
2023-04-05T17:38:56.241Z,97093.66
2023-04-05T17:44:14.606Z,97099.19
2023-04-05T17:49:36.060Z,97119.97
2023-04-05T17:55:46.609Z,97121.47
2023-04-05T18:02:00.321Z,97133.31
2023-04-05T18:06:57.781Z,97134.97
2023-04-05T18:17:04.145Z,97153.50
2023-04-05T18:22:00.128Z,97156.22
2023-04-05T18:26:56.369Z,97168.22
2023-04-05T18:31:50.301Z,97176.28
2023-04-05T18:36:57.122Z,97178.78
2023-04-05T18:42:10.712Z,97182.22
2023-04-05T18:47:21.771Z,97188.38
2023-04-05T18:57:23.526Z,97190.91
2023-04-05T19:08:57.059Z,97200.63
2023-04-05T19:14:26.532Z,97206.22
2023-04-05T19:19:51.933Z,97214.78
2023-04-05T19:25:19.765Z,97221.97
2023-04-05T19:36:43.948Z,97230.88
2023-04-05T19:42:06.552Z,97231.66
2023-04-05T19:47:09.337Z,97235.84
2023-04-05T19:52:06.937Z,97234.09
2023-04-05T21:24:14.978Z,97234.13
2023-04-05T21:59:55.685Z,97257.97
2023-04-05T22:04:49.700Z,97255.44
2023-04-05T22:09:44.403Z,97261.91
2023-04-05T22:14:37.863Z,97259.31
2023-04-05T22:40:07.465Z,97261.53
2023-04-05T22:50:03.652Z,97254.41
2023-04-05T23:20:34.357Z,97255.50
2023-04-05T23:25:30.833Z,97243.19
2023-04-05T23:30:24.528Z,97238.16
2023-04-05T23:57:12.360Z,97259.06
